LEZLLESO

Guest
Details From LEZL - Sevilla
To LESO - San_Sebastian
Flight Number -
Tags generated
Created
Modified
Stats Distance 404 nm / 748 km
Max Altitude 35,000 ft / 10,668 m
Waypoints 8
Social Downloads 0
Likes 0
Share VATSIM

Download

Looking for another format? Having issues loading an existing format? Contact us
Advertisement - Login to hide

Notes

Basic altitude profile: - Ascent Rate: 2500ft/min - Ascent Speed: 250kts - Cruise Altitude: 35000ft - Cruise Speed: 420kts - Descent Rate: 1500ft/min - Descent Speed: 250kts Options: - Use NATs: yes - Use PACOTS: yes - Use low airways: yes - Use high airways: yes

Route

LEZL RUSEM UW130 TLD UN858 SIE UH130 VABAR LESO

ID Type Via Altitude Latitude Longitude Leg Dist Tot Dist Heading (true) Name
O LEZL APT - 0 ft / 0 m 37.41794˚ -5.89309˚ - 0 nm - Sevilla
RUSEM FIX - 35,000 ft / 10,668 m 39.00000˚ -4.84694˚ 107 nm 107 nm 27° / 28° -
SOTUK FIX UW130 (AWY-HI) 35,000 ft / 10,668 m 39.19361˚ -4.74639˚ 12 nm 119 nm 22° / 22° -
TLD VOR UW130 (AWY-HI) 35,000 ft / 10,668 m 39.96946˚ -4.33747˚ 50 nm 169 nm 22° / 22° TOLEDO VOR-DME
SIE VOR UN858 (AWY-HI) 33,300 ft / 10,150 m 41.15170˚ -3.60467˚ 78 nm 248 nm 25° / 25° SOMOSIERRA VOR-DME
GASMO FIX UH130 (AWY-HI) 23,500 ft / 7,163 m 41.72948˚ -3.04875˚ 42 nm 291 nm 36° / 36° -
VABAR FIX UH130 (AWY-HI) 23,500 ft / 7,163 m 42.17100˚ -2.61533˚ 32 nm 323 nm 36° / 36° -
O LESO APT - 0 ft / 0 m 43.35652˚ -1.79061˚ 79 nm 403 nm 27° / 27° San_Sebastian

Altitude Profile

Advertisement - Login to hide

Weather


0- 5 10 15 20 25 30 35+ Temperature / ° C

Clouds and Precipitation
Forecast for 2018-05-22 18:00 UTC. Updated 5 hours ago

Ground ~20,000 ft ~40,000 ft Winds

LEZL

Details ICAO LEZL (SVQ)
Name Sevilla
Region Spain
Timezone Europe/Madrid (UTC+2.0)
Stats Elevation 111 ft / 34 m (AMSL)
Location 37.417939° -5.893093°
Runways 1
Magnetic Variation 1.245° W

METAR

LEZL 222130Z 30007KT CAVOK 21/14 Q1014 NOSIG

Decode

TAF

TAF LEZL 222000Z 2221/2321 24004KT CAVOK TX27/2317Z TN15/2305Z

Decode

Departure Runways

ID Width Length Bearing (true) Bearing (mag) Surface Threshold Offset Overrun Length
09 148 ft / 45 m 11,008 ft / 3,355 m 89.75° 91.00° Asphalt 0 ft / 0 m 0 ft / 0 m
27 148 ft / 45 m 11,008 ft / 3,355 m 269.77° 271.02° Asphalt 0 ft / 0 m 0 ft / 0 m

LESO

Details ICAO LESO (EAS)
Name San_Sebastian
Region Spain
Timezone Europe/Madrid (UTC+2.0)
Stats Elevation 14 ft / 4 m (AMSL)
Location 43.356520° -1.790611°
Runways 1
Magnetic Variation 0.243° W

METAR

LESO 222130Z AUTO 15003KT 8000 NCD 16/14 Q1017

Decode

TAF

TAF LESO 221700Z 2218/2318 VRB05KT CAVOK TX21/2314Z TN13/2306Z PROB40 TEMPO 2303/2307 3000 BR PROB30 TEMPO 2303/2306 0800 BCFG BKN003

Decode

Destination Runways

ID Width Length Bearing (true) Bearing (mag) Surface Threshold Offset Overrun Length
04 148 ft / 45 m 5,762 ft / 1,756 m 38.68° 38.92° Asphalt 0 ft / 0 m 0 ft / 0 m
22 148 ft / 45 m 5,762 ft / 1,756 m 218.69° 218.93° Asphalt 0 ft / 0 m 0 ft / 0 m